sensor_id;sensor_type;location;lat;lon;timestamp;pressure;altitude;pressure_sealevel;temperature;humidity
73383;BME280;61600;48.126;11.542;2023-08-17T00:01:40;95707.97;;;25.99;53.84
73383;BME280;61600;48.126;11.542;2023-08-17T00:04:06;95708.69;;;25.93;54.33
73383;BME280;61600;48.126;11.542;2023-08-17T00:06:32;95707.50;;;25.94;53.93
73383;BME280;61600;48.126;11.542;2023-08-17T00:08:58;95704.94;;;25.78;54.49
73383;BME280;61600;48.126;11.542;2023-08-17T00:11:24;95714.88;;;25.75;54.71
73383;BME280;61600;48.126;11.542;2023-08-17T00:13:50;95712.47;;;25.74;54.54
73383;BME280;61600;48.126;11.542;2023-08-17T00:16:16;95716.13;;;25.81;55.01
73383;BME280;61600;48.126;11.542;2023-08-17T00:18:42;95711.78;;;25.84;54.01
73383;BME280;61600;48.126;11.542;2023-08-17T00:21:08;95708.66;;;25.89;53.92
73383;BME280;61600;48.126;11.542;2023-08-17T00:23:34;95712.91;;;25.79;54.39
73383;BME280;61600;48.126;11.542;2023-08-17T00:26:00;95711.38;;;25.82;54.77
73383;BME280;61600;48.126;11.542;2023-08-17T00:28:26;95707.78;;;25.81;54.29
73383;BME280;61600;48.126;11.542;2023-08-17T00:30:52;95710.94;;;25.80;54.93
73383;BME280;61600;48.126;11.542;2023-08-17T00:33:18;95717.63;;;25.72;55.15
73383;BME280;61600;48.126;11.542;2023-08-17T00:35:44;95710.56;;;25.81;54.45
73383;BME280;61600;48.126;11.542;2023-08-17T00:38:11;95706.56;;;25.79;54.56
73383;BME280;61600;48.126;11.542;2023-08-17T00:40:38;95702.94;;;25.75;55.11
73383;BME280;61600;48.126;11.542;2023-08-17T00:43:04;95713.31;;;25.48;55.71
73383;BME280;61600;48.126;11.542;2023-08-17T00:45:31;95724.00;;;25.43;55.77
73383;BME280;61600;48.126;11.542;2023-08-17T00:47:57;95725.13;;;25.38;56.12
73383;BME280;61600;48.126;11.542;2023-08-17T00:50:25;95725.44;;;25.29;56.02
73383;BME280;61600;48.126;11.542;2023-08-17T00:52:54;95707.38;;;25.50;56.12
73383;BME280;61600;48.126;11.542;2023-08-17T00:55:21;95704.25;;;25.55;55.83
73383;BME280;61600;48.126;11.542;2023-08-17T00:57:47;95710.69;;;25.59;55.26
73383;BME280;61600;48.126;11.542;2023-08-17T01:00:13;95705.75;;;25.49;55.46
73383;BME280;61600;48.126;11.542;2023-08-17T01:02:40;95706.56;;;25.49;55.75
73383;BME280;61600;48.126;11.542;2023-08-17T01:05:07;95705.34;;;25.47;55.73
73383;BME280;61600;48.126;11.542;2023-08-17T01:07:32;95700.53;;;25.44;55.36
73383;BME280;61600;48.126;11.542;2023-08-17T01:09:58;95691.44;;;25.47;55.82
73383;BME280;61600;48.126;11.542;2023-08-17T01:12:32;95701.44;;;25.51;55.29
73383;BME280;61600;48.126;11.542;2023-08-17T01:15:15;95695.63;;;25.33;55.86
73383;BME280;61600;48.126;11.542;2023-08-17T01:17:52;95706.66;;;25.26;55.47
73383;BME280;61600;48.126;11.542;2023-08-17T01:20:21;95709.88;;;25.28;56.14
73383;BME280;61600;48.126;11.542;2023-08-17T01:22:50;95720.59;;;25.26;56.06
73383;BME280;61600;48.126;11.542;2023-08-17T01:25:17;95714.97;;;25.23;55.84
73383;BME280;61600;48.126;11.542;2023-08-17T01:27:44;95704.13;;;25.14;56.57
73383;BME280;61600;48.126;11.542;2023-08-17T01:30:15;95717.41;;;24.98;56.30
73383;BME280;61600;48.126;11.542;2023-08-17T01:32:51;95725.19;;;24.85;57.14
73383;BME280;61600;48.126;11.542;2023-08-17T01:35:39;95722.09;;;24.91;56.95
73383;BME280;61600;48.126;11.542;2023-08-17T01:38:09;95720.19;;;24.72;57.46
73383;BME280;61600;48.126;11.542;2023-08-17T01:40:37;95711.19;;;24.56;57.92
73383;BME280;61600;48.126;11.542;2023-08-17T01:43:03;95722.50;;;24.44;58.79
73383;BME280;61600;48.126;11.542;2023-08-17T01:45:29;95709.88;;;24.50;57.95
73383;BME280;61600;48.126;11.542;2023-08-17T01:47:55;95706.16;;;24.42;58.53
73383;BME280;61600;48.126;11.542;2023-08-17T01:50:21;95712.25;;;24.48;58.00
73383;BME280;61600;48.126;11.542;2023-08-17T01:52:47;95701.63;;;24.30;58.48
73383;BME280;61600;48.126;11.542;2023-08-17T01:55:13;95701.75;;;24.38;58.54
73383;BME280;61600;48.126;11.542;2023-08-17T01:57:38;95695.09;;;24.46;58.15
73383;BME280;61600;48.126;11.542;2023-08-17T02:00:05;95690.06;;;24.51;58.07
73383;BME280;61600;48.126;11.542;2023-08-17T02:02:31;95697.28;;;24.56;57.92
73383;BME280;61600;48.126;11.542;2023-08-17T02:04:57;95688.59;;;24.61;57.97
73383;BME280;61600;48.126;11.542;2023-08-17T02:07:23;95688.28;;;24.66;57.99
73383;BME280;61600;48.126;11.542;2023-08-17T02:09:48;95693.06;;;24.65;57.33
73383;BME280;61600;48.126;11.542;2023-08-17T02:12:14;95698.06;;;24.56;57.40
73383;BME280;61600;48.126;11.542;2023-08-17T02:14:40;95688.06;;;24.52;58.51
73383;BME280;61600;48.126;11.542;2023-08-17T02:17:05;95682.56;;;24.55;57.77
73383;BME280;61600;48.126;11.542;2023-08-17T02:19:31;95690.84;;;24.52;57.82
73383;BME280;61600;48.126;11.542;2023-08-17T02:21:58;95688.59;;;24.34;58.95
73383;BME280;61600;48.126;11.542;2023-08-17T02:24:25;95691.00;;;24.13;59.05
73383;BME280;61600;48.126;11.542;2023-08-17T02:26:50;95686.41;;;24.24;59.11
73383;BME280;61600;48.126;11.542;2023-08-17T02:29:16;95683.44;;;24.36;58.95
73383;BME280;61600;48.126;11.542;2023-08-17T02:31:42;95681.03;;;24.35;58.48
73383;BME280;61600;48.126;11.542;2023-08-17T02:34:08;95679.28;;;24.50;58.87
73383;BME280;61600;48.126;11.542;2023-08-17T02:36:35;95676.63;;;24.57;58.56
73383;BME280;61600;48.126;11.542;2023-08-17T02:39:00;95683.91;;;24.65;57.84
73383;BME280;61600;48.126;11.542;2023-08-17T02:41:26;95679.94;;;24.66;57.32
73383;BME280;61600;48.126;11.542;2023-08-17T02:43:51;95681.53;;;24.67;57.72
73383;BME280;61600;48.126;11.542;2023-08-17T02:46:17;95681.75;;;24.55;58.09
73383;BME280;61600;48.126;11.542;2023-08-17T02:48:43;95684.84;;;24.50;57.98
73383;BME280;61600;48.126;11.542;2023-08-17T02:51:09;95682.34;;;24.41;57.69
73383;BME280;61600;48.126;11.542;2023-08-17T02:53:34;95678.06;;;24.47;57.46
73383;BME280;61600;48.126;11.542;2023-08-17T02:56:00;95684.50;;;24.51;57.25
73383;BME280;61600;48.126;11.542;2023-08-17T02:58:26;95681.66;;;24.48;57.40
73383;BME280;61600;48.126;11.542;2023-08-17T03:00:52;95687.09;;;24.41;57.93
73383;BME280;61600;48.126;11.542;2023-08-17T03:03:19;95683.34;;;24.29;58.03
73383;BME280;61600;48.126;11.542;2023-08-17T03:05:44;95685.38;;;24.32;57.71
73383;BME280;61600;48.126;11.542;2023-08-17T03:08:10;95686.22;;;24.36;57.63
73383;BME280;61600;48.126;11.542;2023-08-17T03:10:37;95688.06;;;24.06;58.53
73383;BME280;61600;48.126;11.542;2023-08-17T03:13:03;95693.31;;;24.11;58.58
73383;BME280;61600;48.126;11.542;2023-08-17T03:15:29;95692.78;;;24.02;58.54
73383;BME280;61600;48.126;11.542;2023-08-17T03:17:56;95691.78;;;24.14;58.25
73383;BME280;61600;48.126;11.542;2023-08-17T03:20:21;95689.53;;;24.19;58.78
73383;BME280;61600;48.126;11.542;2023-08-17T03:22:47;95694.13;;;24.12;58.30
73383;BME280;61600;48.126;11.542;2023-08-17T03:25:13;95689.53;;;24.00;59.15
73383;BME280;61600;48.126;11.542;2023-08-17T03:27:39;95688.31;;;23.98;59.25
73383;BME280;61600;48.126;11.542;2023-08-17T03:30:05;95693.94;;;24.01;59.14
73383;BME280;61600;48.126;11.542;2023-08-17T03:32:31;95698.88;;;23.88;59.08
73383;BME280;61600;48.126;11.542;2023-08-17T03:34:56;95681.81;;;23.90;60.13
73383;BME280;61600;48.126;11.542;2023-08-17T03:37:22;95691.63;;;24.07;59.04
73383;BME280;61600;48.126;11.542;2023-08-17T03:39:48;95696.44;;;23.87;59.96
73383;BME280;61600;48.126;11.542;2023-08-17T03:42:14;95694.75;;;24.02;59.72
73383;BME280;61600;48.126;11.542;2023-08-17T03:44:39;95696.09;;;23.88;59.32
73383;BME280;61600;48.126;11.542;2023-08-17T03:47:05;95706.66;;;24.02;59.37
73383;BME280;61600;48.126;11.542;2023-08-17T03:49:31;95696.41;;;24.06;58.77
73383;BME280;61600;48.126;11.542;2023-08-17T03:51:57;95694.47;;;24.10;58.85
73383;BME280;61600;48.126;11.542;2023-08-17T03:54:23;95691.44;;;24.15;58.95
73383;BME280;61600;48.126;11.542;2023-08-17T03:56:49;95691.44;;;24.15;58.73
73383;BME280;61600;48.126;11.542;2023-08-17T03:59:14;95690.69;;;24.18;58.58
73383;BME280;61600;48.126;11.542;2023-08-17T04:01:40;95697.72;;;24.12;58.60
73383;BME280;61600;48.126;11.542;2023-08-17T04:04:06;95698.06;;;24.11;58.68
73383;BME280;61600;48.126;11.542;2023-08-17T04:06:32;95700.50;;;24.12;58.85
73383;BME280;61600;48.126;11.542;2023-08-17T04:08:57;95703.63;;;24.11;58.65
73383;BME280;61600;48.126;11.542;2023-08-17T04:11:23;95705.34;;;24.15;58.97
73383;BME280;61600;48.126;11.542;2023-08-17T04:13:49;95710.59;;;24.20;58.27
73383;BME280;61600;48.126;11.542;2023-08-17T04:16:15;95709.34;;;24.18;58.32
73383;BME280;61600;48.126;11.542;2023-08-17T04:18:40;95708.53;;;24.17;58.55
73383;BME280;61600;48.126;11.542;2023-08-17T04:21:06;95715.75;;;23.99;59.29
73383;BME280;61600;48.126;11.542;2023-08-17T04:23:32;95709.81;;;24.01;59.08
73383;BME280;61600;48.126;11.542;2023-08-17T04:25:57;95709.56;;;24.09;58.64
73383;BME280;61600;48.126;11.542;2023-08-17T04:28:23;95719.50;;;24.10;58.57
73383;BME280;61600;48.126;11.542;2023-08-17T04:30:49;95723.47;;;23.48;60.83
73383;BME280;61600;48.126;11.542;2023-08-17T04:33:15;95726.47;;;23.78;59.67
73383;BME280;61600;48.126;11.542;2023-08-17T04:35:40;95714.34;;;23.48;60.62
73383;BME280;61600;48.126;11.542;2023-08-17T04:38:06;95723.13;;;23.50;60.61
73383;BME280;61600;48.126;11.542;2023-08-17T04:40:32;95734.94;;;23.66;60.57
73383;BME280;61600;48.126;11.542;2023-08-17T04:42:58;95727.63;;;23.77;59.87
73383;BME280;61600;48.126;11.542;2023-08-17T04:45:24;95735.34;;;23.87;59.53
73383;BME280;61600;48.126;11.542;2023-08-17T04:47:50;95735.50;;;23.94;58.99
73383;BME280;61600;48.126;11.542;2023-08-17T04:50:16;95740.63;;;23.92;59.35
73383;BME280;61600;48.126;11.542;2023-08-17T04:52:43;95740.03;;;23.83;59.51
73383;BME280;61600;48.126;11.542;2023-08-17T04:55:09;95743.72;;;23.68;59.79
73383;BME280;61600;48.126;11.542;2023-08-17T04:57:35;95735.97;;;23.77;59.83
73383;BME280;61600;48.126;11.542;2023-08-17T05:00:01;95740.31;;;23.97;60.68
73383;BME280;61600;48.126;11.542;2023-08-17T05:02:27;95741.59;;;24.03;60.25
73383;BME280;61600;48.126;11.542;2023-08-17T05:04:53;95740.09;;;24.28;58.93
73383;BME280;61600;48.126;11.542;2023-08-17T05:07:18;95740.06;;;24.48;58.41
73383;BME280;61600;48.126;11.542;2023-08-17T05:09:44;95739.84;;;24.60;58.09
73383;BME280;61600;48.126;11.542;2023-08-17T05:12:10;95745.41;;;24.60;57.94
73383;BME280;61600;48.126;11.542;2023-08-17T05:14:36;95736.06;;;24.71;57.75
73383;BME280;61600;48.126;11.542;2023-08-17T05:17:02;95742.13;;;24.77;57.20
73383;BME280;61600;48.126;11.542;2023-08-17T05:19:28;95744.06;;;24.99;57.05
73383;BME280;61600;48.126;11.542;2023-08-17T05:21:54;95744.03;;;24.96;57.05
73383;BME280;61600;48.126;11.542;2023-08-17T05:24:20;95742.19;;;24.80;57.04
73383;BME280;61600;48.126;11.542;2023-08-17T05:26:46;95746.28;;;24.87;57.25
73383;BME280;61600;48.126;11.542;2023-08-17T05:29:11;95747.19;;;24.94;55.80
73383;BME280;61600;48.126;11.542;2023-08-17T05:31:37;95743.66;;;24.74;57.64
73383;BME280;61600;48.126;11.542;2023-08-17T05:34:03;95754.22;;;24.88;57.39
73383;BME280;61600;48.126;11.542;2023-08-17T05:36:29;95747.50;;;24.89;57.61
73383;BME280;61600;48.126;11.542;2023-08-17T05:38:55;95752.31;;;24.92;57.32
73383;BME280;61600;48.126;11.542;2023-08-17T05:41:20;95748.94;;;25.06;57.33
73383;BME280;61600;48.126;11.542;2023-08-17T05:43:47;95750.44;;;25.00;56.63
73383;BME280;61600;48.126;11.542;2023-08-17T05:46:14;95743.31;;;25.02;57.70
73383;BME280;61600;48.126;11.542;2023-08-17T05:48:40;95742.91;;;25.00;57.60
73383;BME280;61600;48.126;11.542;2023-08-17T05:51:06;95746.16;;;25.06;58.01
73383;BME280;61600;48.126;11.542;2023-08-17T05:53:32;95749.63;;;24.99;56.79
73383;BME280;61600;48.126;11.542;2023-08-17T05:55:58;95747.50;;;25.15;57.42
73383;BME280;61600;48.126;11.542;2023-08-17T05:58:24;95747.34;;;25.34;57.33
73383;BME280;61600;48.126;11.542;2023-08-17T06:00:50;95745.47;;;25.42;57.09
73383;BME280;61600;48.126;11.542;2023-08-17T06:03:15;95752.22;;;25.11;58.35
73383;BME280;61600;48.126;11.542;2023-08-17T06:05:41;95755.09;;;25.48;56.79
73383;BME280;61600;48.126;11.542;2023-08-17T06:08:07;95747.31;;;25.57;56.54
73383;BME280;61600;48.126;11.542;2023-08-17T06:10:33;95745.00;;;25.66;56.43
73383;BME280;61600;48.126;11.542;2023-08-17T06:12:58;95754.03;;;25.86;55.12
73383;BME280;61600;48.126;11.542;2023-08-17T06:15:24;95757.19;;;25.55;55.51
73383;BME280;61600;48.126;11.542;2023-08-17T06:17:50;95754.13;;;25.63;55.70
73383;BME280;61600;48.126;11.542;2023-08-17T06:20:16;95753.09;;;25.75;55.10
73383;BME280;61600;48.126;11.542;2023-08-17T06:22:42;95757.63;;;25.57;56.17
73383;BME280;61600;48.126;11.542;2023-08-17T06:25:08;95750.59;;;25.66;55.36
73383;BME280;61600;48.126;11.542;2023-08-17T06:27:35;95752.13;;;25.60;56.50
73383;BME280;61600;48.126;11.542;2023-08-17T06:30:04;95757.28;;;25.62;55.45
73383;BME280;61600;48.126;11.542;2023-08-17T06:32:30;95756.44;;;25.54;55.43
73383;BME280;61600;48.126;11.542;2023-08-17T06:34:56;95745.91;;;25.74;54.66
73383;BME280;61600;48.126;11.542;2023-08-17T06:37:22;95747.03;;;25.69;55.10
73383;BME280;61600;48.126;11.542;2023-08-17T06:39:48;95753.28;;;25.59;54.78
73383;BME280;61600;48.126;11.542;2023-08-17T06:42:15;95743.34;;;25.62;54.85
73383;BME280;61600;48.126;11.542;2023-08-17T06:44:41;95756.50;;;25.61;55.32
73383;BME280;61600;48.126;11.542;2023-08-17T06:47:07;95745.16;;;25.77;55.03
73383;BME280;61600;48.126;11.542;2023-08-17T06:49:35;95749.66;;;25.89;54.57
73383;BME280;61600;48.126;11.542;2023-08-17T06:52:00;95756.06;;;25.59;55.66
73383;BME280;61600;48.126;11.542;2023-08-17T06:54:26;95745.09;;;25.73;55.34
73383;BME280;61600;48.126;11.542;2023-08-17T06:56:52;95751.53;;;25.77;55.07
73383;BME280;61600;48.126;11.542;2023-08-17T06:59:18;95744.53;;;25.94;54.02
73383;BME280;61600;48.126;11.542;2023-08-17T07:01:44;95750.06;;;25.91;54.08
73383;BME280;61600;48.126;11.542;2023-08-17T07:04:09;95754.06;;;25.93;54.04
73383;BME280;61600;48.126;11.542;2023-08-17T07:06:35;95753.19;;;26.19;53.04
73383;BME280;61600;48.126;11.542;2023-08-17T07:09:01;95752.66;;;26.06;53.86
73383;BME280;61600;48.126;11.542;2023-08-17T07:11:29;95760.47;;;26.27;53.06
73383;BME280;61600;48.126;11.542;2023-08-17T07:13:55;95754.75;;;26.16;53.32
73383;BME280;61600;48.126;11.542;2023-08-17T07:16:21;95757.69;;;26.27;53.48
73383;BME280;61600;48.126;11.542;2023-08-17T07:18:46;95757.16;;;26.18;52.14
73383;BME280;61600;48.126;11.542;2023-08-17T07:21:12;95754.69;;;26.50;52.22
73383;BME280;61600;48.126;11.542;2023-08-17T07:23:38;95757.13;;;26.55;51.61
73383;BME280;61600;48.126;11.542;2023-08-17T07:26:04;95751.59;;;26.58;51.44
73383;BME280;61600;48.126;11.542;2023-08-17T07:28:29;95765.69;;;26.76;51.58
73383;BME280;61600;48.126;11.542;2023-08-17T07:30:55;95765.81;;;26.87;51.15
73383;BME280;61600;48.126;11.542;2023-08-17T07:33:21;95766.50;;;26.76;50.61
73383;BME280;61600;48.126;11.542;2023-08-17T07:35:46;95769.75;;;26.82;50.62
73383;BME280;61600;48.126;11.542;2023-08-17T07:38:12;95768.88;;;26.74;50.94
73383;BME280;61600;48.126;11.542;2023-08-17T07:40:41;95763.06;;;26.90;50.72
73383;BME280;61600;48.126;11.542;2023-08-17T07:43:08;95768.75;;;27.04;50.52
73383;BME280;61600;48.126;11.542;2023-08-17T07:45:34;95768.41;;;27.16;50.65
73383;BME280;61600;48.126;11.542;2023-08-17T07:48:00;95768.47;;;27.27;51.00
73383;BME280;61600;48.126;11.542;2023-08-17T07:50:26;95761.34;;;27.29;50.10
73383;BME280;61600;48.126;11.542;2023-08-17T07:52:51;95765.00;;;27.44;50.39
73383;BME280;61600;48.126;11.542;2023-08-17T07:55:17;95763.53;;;27.61;49.71
73383;BME280;61600;48.126;11.542;2023-08-17T07:57:43;95764.38;;;27.68;49.70
73383;BME280;61600;48.126;11.542;2023-08-17T08:00:09;95762.81;;;27.78;49.91
73383;BME280;61600;48.126;11.542;2023-08-17T08:02:35;95755.63;;;27.84;50.03
73383;BME280;61600;48.126;11.542;2023-08-17T08:05:01;95759.66;;;27.83;48.88
73383;BME280;61600;48.126;11.542;2023-08-17T08:07:27;95762.06;;;27.92;48.84
73383;BME280;61600;48.126;11.542;2023-08-17T08:09:52;95761.69;;;27.93;48.68
73383;BME280;61600;48.126;11.542;2023-08-17T08:12:24;95759.31;;;28.02;48.76
73383;BME280;61600;48.126;11.542;2023-08-17T08:14:55;95762.88;;;27.96;48.52
73383;BME280;61600;48.126;11.542;2023-08-17T08:17:20;95752.44;;;27.82;48.44
73383;BME280;61600;48.126;11.542;2023-08-17T08:19:46;95755.59;;;27.77;49.03
73383;BME280;61600;48.126;11.542;2023-08-17T08:22:12;95753.25;;;27.86;49.05
73383;BME280;61600;48.126;11.542;2023-08-17T08:24:38;95751.72;;;28.06;48.39
73383;BME280;61600;48.126;11.542;2023-08-17T08:27:06;95758.19;;;28.17;48.45
73383;BME280;61600;48.126;11.542;2023-08-17T08:29:33;95749.00;;;28.27;48.52
73383;BME280;61600;48.126;11.542;2023-08-17T08:31:59;95747.81;;;28.28;48.35
73383;BME280;61600;48.126;11.542;2023-08-17T08:34:25;95747.81;;;28.21;48.28
73383;BME280;61600;48.126;11.542;2023-08-17T08:36:51;95761.38;;;28.26;48.38
73383;BME280;61600;48.126;11.542;2023-08-17T08:39:16;95747.41;;;28.34;47.88
73383;BME280;61600;48.126;11.542;2023-08-17T08:41:42;95755.00;;;28.29;47.97
73383;BME280;61600;48.126;11.542;2023-08-17T08:44:08;95749.41;;;28.40;47.92
73383;BME280;61600;48.126;11.542;2023-08-17T08:46:34;95755.84;;;28.62;47.25
73383;BME280;61600;48.126;11.542;2023-08-17T08:49:03;95752.66;;;28.56;47.24
73383;BME280;61600;48.126;11.542;2023-08-17T08:51:32;95754.28;;;28.75;46.75
73383;BME280;61600;48.126;11.542;2023-08-17T08:54:01;95751.38;;;28.18;47.54
73383;BME280;61600;48.126;11.542;2023-08-17T08:56:32;95754.28;;;28.68;46.83
73383;BME280;61600;48.126;11.542;2023-08-17T08:59:01;95754.69;;;28.81;46.06
73383;BME280;61600;48.126;11.542;2023-08-17T09:01:28;95751.88;;;28.95;45.71
73383;BME280;61600;48.126;11.542;2023-08-17T09:03:57;95753.06;;;29.08;45.55
73383;BME280;61600;48.126;11.542;2023-08-17T09:06:25;95745.84;;;29.21;48.28
73383;BME280;61600;48.126;11.542;2023-08-17T09:08:52;95742.69;;;28.98;47.16
73383;BME280;61600;48.126;11.542;2023-08-17T09:11:17;95742.66;;;29.12;47.28
73383;BME280;61600;48.126;11.542;2023-08-17T09:13:43;95745.47;;;29.30;46.89
73383;BME280;61600;48.126;11.542;2023-08-17T09:16:09;95744.66;;;29.33;45.26
73383;BME280;61600;48.126;11.542;2023-08-17T09:18:35;95745.00;;;29.49;45.54
73383;BME280;61600;48.126;11.542;2023-08-17T09:21:01;95743.03;;;29.39;45.17
73383;BME280;61600;48.126;11.542;2023-08-17T09:23:27;95734.28;;;28.98;44.49
73383;BME280;61600;48.126;11.542;2023-08-17T09:25:53;95731.44;;;29.37;45.24
73383;BME280;61600;48.126;11.542;2023-08-17T09:28:23;95729.84;;;29.18;43.82
73383;BME280;61600;48.126;11.542;2023-08-17T09:31:01;95729.41;;;29.51;43.67
73383;BME280;61600;48.126;11.542;2023-08-17T09:33:30;95738.09;;;29.82;43.05
73383;BME280;61600;48.126;11.542;2023-08-17T09:35:57;95739.00;;;29.54;43.32
73383;BME280;61600;48.126;11.542;2023-08-17T09:38:24;95733.38;;;29.61;42.85
73383;BME280;61600;48.126;11.542;2023-08-17T09:40:49;95734.53;;;29.70;42.53
73383;BME280;61600;48.126;11.542;2023-08-17T09:43:16;95728.44;;;29.97;41.92
73383;BME280;61600;48.126;11.542;2023-08-17T09:45:44;95728.41;;;30.00;41.16
73383;BME280;61600;48.126;11.542;2023-08-17T09:48:15;95725.50;;;30.21;41.94
73383;BME280;61600;48.126;11.542;2023-08-17T09:50:42;95715.06;;;30.26;41.20
73383;BME280;61600;48.126;11.542;2023-08-17T09:53:16;95721.50;;;30.15;42.55
73383;BME280;61600;48.126;11.542;2023-08-17T09:55:43;95724.50;;;29.73;43.08
73383;BME280;61600;48.126;11.542;2023-08-17T09:58:09;95723.34;;;29.60;43.24
73383;BME280;61600;48.126;11.542;2023-08-17T10:00:36;95720.94;;;29.69;43.21
73383;BME280;61600;48.126;11.542;2023-08-17T10:03:04;95710.81;;;29.96;41.65
73383;BME280;61600;48.126;11.542;2023-08-17T10:05:35;95715.75;;;30.44;42.08
73383;BME280;61600;48.126;11.542;2023-08-17T10:08:05;95719.69;;;30.57;41.19
73383;BME280;61600;48.126;11.542;2023-08-17T10:10:34;95717.78;;;30.91;40.53
73383;BME280;61600;48.126;11.542;2023-08-17T10:13:09;95711.31;;;30.94;40.26
73383;BME280;61600;48.126;11.542;2023-08-17T10:16:02;95713.72;;;31.40;39.57
73383;BME280;61600;48.126;11.542;2023-08-17T10:21:13;95701.69;;;31.36;40.56
73383;BME280;61600;48.126;11.542;2023-08-17T10:23:43;95716.81;;;31.49;40.59
73383;BME280;61600;48.126;11.542;2023-08-17T10:26:10;95712.31;;;31.59;38.94
73383;BME280;61600;48.126;11.542;2023-08-17T10:28:35;95710.19;;;31.70;39.33
73383;BME280;61600;48.126;11.542;2023-08-17T10:31:02;95713.81;;;32.01;39.47
73383;BME280;61600;48.126;11.542;2023-08-17T10:33:28;95709.03;;;31.98;38.30
73383;BME280;61600;48.126;11.542;2023-08-17T10:35:55;95718.59;;;32.34;38.85
73383;BME280;61600;48.126;11.542;2023-08-17T10:38:21;95709.94;;;31.91;38.41
73383;BME280;61600;48.126;11.542;2023-08-17T10:41:08;95712.59;;;32.05;37.89
73383;BME280;61600;48.126;11.542;2023-08-17T10:43:34;95711.34;;;32.06;38.08
73383;BME280;61600;48.126;11.542;2023-08-17T10:46:15;95702.50;;;32.35;37.90
73383;BME280;61600;48.126;11.542;2023-08-17T10:48:44;95702.59;;;32.54;37.99
73383;BME280;61600;48.126;11.542;2023-08-17T10:51:10;95714.84;;;32.71;36.91
73383;BME280;61600;48.126;11.542;2023-08-17T10:53:42;95709.22;;;32.71;36.58
73383;BME280;61600;48.126;11.542;2023-08-17T10:56:12;95707.75;;;33.09;35.50
73383;BME280;61600;48.126;11.542;2023-08-17T10:58:38;95702.78;;;32.94;35.76
73383;BME280;61600;48.126;11.542;2023-08-17T11:01:04;95702.09;;;33.09;35.90
73383;BME280;61600;48.126;11.542;2023-08-17T11:03:30;95700.25;;;33.46;35.18
73383;BME280;61600;48.126;11.542;2023-08-17T11:05:57;95698.88;;;33.34;34.60
73383;BME280;61600;48.126;11.542;2023-08-17T11:08:32;95701.38;;;33.29;34.66
73383;BME280;61600;48.126;11.542;2023-08-17T11:11:14;95697.22;;;33.13;35.49
73383;BME280;61600;48.126;11.542;2023-08-17T11:13:41;95701.31;;;32.86;35.52
73383;BME280;61600;48.126;11.542;2023-08-17T11:16:08;95690.22;;;32.98;36.05
73383;BME280;61600;48.126;11.542;2023-08-17T11:18:35;95691.09;;;33.19;35.01
73383;BME280;61600;48.126;11.542;2023-08-17T11:21:07;95701.03;;;33.46;34.62
73383;BME280;61600;48.126;11.542;2023-08-17T11:23:35;95685.78;;;33.44;34.35
73383;BME280;61600;48.126;11.542;2023-08-17T11:26:02;95690.69;;;33.63;34.13
73383;BME280;61600;48.126;11.542;2023-08-17T11:28:32;95688.69;;;33.99;34.01
73383;BME280;61600;48.126;11.542;2023-08-17T11:31:07;95684.28;;;33.98;33.58
73383;BME280;61600;48.126;11.542;2023-08-17T11:33:34;95684.94;;;34.06;32.72
73383;BME280;61600;48.126;11.542;2023-08-17T11:36:04;95679.84;;;34.17;32.91
73383;BME280;61600;48.126;11.542;2023-08-17T11:38:34;95677.63;;;34.44;32.37
73383;BME280;61600;48.126;11.542;2023-08-17T11:41:00;95667.81;;;34.33;32.98
73383;BME280;61600;48.126;11.542;2023-08-17T11:43:30;95672.00;;;34.25;32.41
73383;BME280;61600;48.126;11.542;2023-08-17T11:45:57;95667.25;;;34.22;33.48
73383;BME280;61600;48.126;11.542;2023-08-17T11:48:24;95659.56;;;34.22;34.29
73383;BME280;61600;48.126;11.542;2023-08-17T11:50:51;95651.53;;;34.73;34.53
73383;BME280;61600;48.126;11.542;2023-08-17T11:53:16;95654.06;;;34.99;33.83
73383;BME280;61600;48.126;11.542;2023-08-17T11:55:43;95658.56;;;34.81;33.51
73383;BME280;61600;48.126;11.542;2023-08-17T11:58:09;95652.41;;;34.86;33.88
73383;BME280;61600;48.126;11.542;2023-08-17T12:00:42;95652.63;;;35.24;32.80
73383;BME280;61600;48.126;11.542;2023-08-17T12:03:15;95651.13;;;35.19;32.67
73383;BME280;61600;48.126;11.542;2023-08-17T12:05:42;95651.00;;;35.39;33.40
73383;BME280;61600;48.126;11.542;2023-08-17T12:08:09;95650.47;;;35.73;33.14
73383;BME280;61600;48.126;11.542;2023-08-17T12:10:37;95643.00;;;35.50;32.98
73383;BME280;61600;48.126;11.542;2023-08-17T12:13:03;95636.97;;;35.64;32.72
73383;BME280;61600;48.126;11.542;2023-08-17T12:15:35;95647.25;;;35.99;31.97
73383;BME280;61600;48.126;11.542;2023-08-17T12:18:02;95644.47;;;35.83;32.75
73383;BME280;61600;48.126;11.542;2023-08-17T12:20:30;95632.19;;;36.02;31.54
73383;BME280;61600;48.126;11.542;2023-08-17T12:22:57;95642.66;;;36.31;31.87
73383;BME280;61600;48.126;11.542;2023-08-17T12:25:25;95630.63;;;36.39;30.87
73383;BME280;61600;48.126;11.542;2023-08-17T12:27:51;95634.69;;;36.38;30.54
73383;BME280;61600;48.126;11.542;2023-08-17T12:30:31;95621.69;;;36.16;30.90
73383;BME280;61600;48.126;11.542;2023-08-17T12:32:58;95619.41;;;36.61;31.18
73383;BME280;61600;48.126;11.542;2023-08-17T12:35:26;95615.09;;;36.31;31.68
73383;BME280;61600;48.126;11.542;2023-08-17T12:37:54;95611.31;;;36.85;30.92
73383;BME280;61600;48.126;11.542;2023-08-17T12:40:20;95605.19;;;36.86;30.22
73383;BME280;61600;48.126;11.542;2023-08-17T12:42:46;95603.00;;;37.16;30.80
73383;BME280;61600;48.126;11.542;2023-08-17T12:45:14;95603.34;;;36.92;30.42
73383;BME280;61600;48.126;11.542;2023-08-17T12:47:40;95602.06;;;37.19;30.18
73383;BME280;61600;48.126;11.542;2023-08-17T12:50:05;95605.94;;;37.34;29.93
73383;BME280;61600;48.126;11.542;2023-08-17T12:52:31;95605.00;;;37.49;29.47